Time;durP1;ratioP1;P1;durP2;ratioP2;P2;SDS_P1;SDS_P2;PMS_P1;PMS_P2;Temp;Humidity;BMP_temperature;BMP_pressure;BME280_temperature;BME280_humidity;BME280_pressure;Samples;Min_cycle;Max_cycle;Signal;HPM_P1;HPM_P2
2023/02/11 00:01:17;;;;;;;34.80;22.37;;;6.90;99.90;;;;;;5017358;28;20508;-75
2023/02/11 00:03:43;;;;;;;32.00;21.87;;;7.00;99.90;;;;;;5011452;28;20644;-75
2023/02/11 00:06:10;;;;;;;31.13;22.10;;;6.80;99.90;;;;;;5028592;28;20530;-75
2023/02/11 00:08:36;;;;;;;35.53;22.67;;;6.90;99.90;;;;;;5028830;28;20644;-75
2023/02/11 00:11:03;;;;;;;36.27;22.83;;;7.00;99.90;;;;;;5011025;28;20973;-75
2023/02/11 00:13:28;;;;;;;32.87;21.93;;;7.10;99.90;;;;;;5028805;28;20504;-75
2023/02/11 00:15:54;;;;;;;30.70;22.37;;;7.00;99.90;;;;;;5029108;28;20437;-75
2023/02/11 00:18:20;;;;;;;30.10;20.30;;;6.80;99.90;;;;;;5029023;28;20174;-75
2023/02/11 00:20:46;;;;;;;28.83;21.67;;;6.80;99.90;;;;;;5010804;28;20445;-75
2023/02/11 00:23:12;;;;;;;33.67;21.67;;;6.90;99.90;;;;;;5027582;28;20493;-74
2023/02/11 00:25:43;;;;;;;34.43;22.67;;;6.80;99.90;;;;;;5029023;28;20301;-76
2023/02/11 00:28:10;;;;;;;29.20;20.80;;;6.90;99.90;;;;;;5028715;28;21141;-76
2023/02/11 00:30:36;;;;;;;31.37;22.53;;;6.90;99.90;;;;;;5028640;28;20417;-75
2023/02/11 00:33:03;;;;;;;31.50;21.70;;;6.90;99.90;;;;;;5028694;28;20457;-76
2023/02/11 00:35:28;;;;;;;32.33;22.17;;;7.10;99.90;;;;;;5011057;28;20703;-75
2023/02/11 00:37:55;;;;;;;38.67;23.00;;;7.00;99.90;;;;;;4994504;28;20431;-74
2023/02/11 00:40:21;;;;;;;33.83;21.70;;;7.00;99.90;;;;;;5028455;28;20493;-74
2023/02/11 00:42:47;;;;;;;33.73;21.40;;;6.90;99.90;;;;;;5030113;28;20791;-74
2023/02/11 00:45:12;;;;;;;31.20;20.97;;;6.90;99.90;;;;;;5032773;28;20504;-75
2023/02/11 00:47:38;;;;;;;30.47;21.50;;;7.00;99.90;;;;;;5032624;28;20413;-75
2023/02/11 00:50:05;;;;;;;33.90;22.73;;;6.90;99.90;;;;;;5014934;28;20213;-74
2023/02/11 00:52:31;;;;;;;33.00;22.87;;;6.90;99.90;;;;;;5032504;28;20214;-74
2023/02/11 00:54:57;;;;;;;38.20;21.80;;;7.10;99.90;;;;;;5032578;28;20722;-76
2023/02/11 00:57:22;;;;;;;36.47;21.03;;;7.00;99.90;;;;;;5032335;28;20409;-75
2023/02/11 00:59:49;;;;;;;28.10;20.67;;;6.80;99.90;;;;;;5032134;28;20174;-75
2023/02/11 01:02:15;;;;;;;33.83;21.23;;;7.00;99.90;;;;;;5014601;28;20222;-74
2023/02/11 01:04:41;;;;;;;28.83;20.50;;;7.00;99.90;;;;;;5032324;28;20443;-76
2023/02/11 01:07:06;;;;;;;31.73;21.17;;;7.00;99.90;;;;;;5032306;28;20504;-74
2023/02/11 01:09:32;;;;;;;31.83;21.90;;;6.90;99.90;;;;;;5032324;28;20221;-76
2023/02/11 01:11:58;;;;;;;27.07;18.90;;;6.90;99.90;;;;;;5014077;28;20250;-75
2023/02/11 01:14:24;;;;;;;30.07;20.07;;;7.00;99.90;;;;;;5032215;28;20198;-76
2023/02/11 01:16:50;;;;;;;32.20;19.90;;;6.80;99.90;;;;;;5032205;28;20382;-75
2023/02/11 01:19:15;;;;;;;30.23;20.93;;;6.90;99.90;;;;;;5032248;28;20405;-75
2023/02/11 01:21:41;;;;;;;30.47;20.77;;;6.90;99.90;;;;;;5013218;28;20429;-73
2023/02/11 01:24:07;;;;;;;32.57;20.43;;;7.00;99.90;;;;;;5031950;28;20175;-76
2023/02/11 01:26:32;;;;;;;27.17;19.43;;;6.90;99.90;;;;;;5014248;28;20228;-74
2023/02/11 01:28:59;;;;;;;30.00;19.40;;;6.90;99.90;;;;;;5047304;28;20179;-75
2023/02/11 01:31:25;;;;;;;25.30;19.70;;;6.90;99.90;;;;;;5013856;28;20191;-73
2023/02/11 01:33:51;;;;;;;29.37;18.97;;;7.00;99.90;;;;;;5031733;28;20518;-75
2023/02/11 01:36:16;;;;;;;23.53;18.93;;;6.80;99.90;;;;;;5031749;28;20175;-75
2023/02/11 01:38:43;;;;;;;27.17;19.20;;;6.80;99.90;;;;;;5003747;28;20245;-76
2023/02/11 01:41:13;;;;;;;25.47;18.70;;;6.90;99.90;;;;;;4994158;28;20206;-75
2023/02/11 01:43:45;;;;;;;29.47;18.73;;;7.10;99.90;;;;;;5011919;28;20422;-76
2023/02/11 01:46:30;;;;;;;27.43;18.23;;;7.10;99.90;;;;;;5011880;28;20560;-76
2023/02/11 01:49:13;;;;;;;27.17;18.70;;;7.10;99.90;;;;;;5011887;28;20791;-76
2023/02/11 01:51:45;;;;;;;26.40;18.03;;;7.20;99.90;;;;;;5011440;28;20441;-74
2023/02/11 02:00:06;;;;;;;28.27;19.00;;;7.00;99.90;;;;;;5010641;28;20501;-76
2023/02/11 02:02:42;;;;;;;26.70;18.27;;;7.10;99.90;;;;;;5011598;28;20438;-75
2023/02/11 02:05:35;;;;;;;26.73;18.00;;;7.00;99.90;;;;;;5011551;28;20837;-75
2023/02/11 02:08:16;;;;;;;28.17;19.13;;;6.90;99.90;;;;;;5001403;28;20426;-75
2023/02/11 02:10:48;;;;;;;27.10;19.37;;;7.10;99.90;;;;;;5011232;28;20784;-75
2023/02/11 02:13:14;;;;;;;29.20;17.67;;;7.20;99.90;;;;;;5011266;28;20469;-75
2023/02/11 02:15:48;;;;;;;28.77;18.20;;;7.00;99.90;;;;;;4993598;28;20768;-74
2023/02/11 02:18:50;;;;;;;27.50;20.10;;;6.90;99.90;;;;;;5011211;28;20623;-75
2023/02/11 02:21:53;;;;;;;29.20;19.13;;;7.00;99.90;;;;;;4993444;28;20770;-75
2023/02/11 02:24:21;;;;;;;27.27;18.87;;;6.90;99.90;;;;;;5010995;28;20414;-75
2023/02/11 02:27:21;;;;;;;26.97;19.00;;;6.70;99.90;;;;;;5010880;28;20446;-75
2023/02/11 02:30:02;;;;;;;25.97;18.60;;;6.90;99.90;;;;;;5011069;28;21050;-76
2023/02/11 02:32:49;;;;;;;25.53;18.87;;;6.90;99.90;;;;;;5010826;28;20468;-75
2023/02/11 02:35:39;;;;;;;26.60;18.60;;;6.90;99.90;;;;;;5011057;28;20429;-74
2023/02/11 02:38:17;;;;;;;27.67;19.27;;;7.00;99.90;;;;;;5015913;28;20413;-75
2023/02/11 02:41:02;;;;;;;30.40;19.50;;;7.10;99.90;;;;;;5030827;28;20499;-75
2023/02/11 02:43:29;;;;;;;25.87;18.50;;;6.90;99.90;;;;;;5030468;28;20412;-75
2023/02/11 02:45:55;;;;;;;30.30;19.87;;;6.90;99.90;;;;;;5030748;28;20475;-74
2023/02/11 02:48:28;;;;;;;25.40;19.20;;;6.90;99.90;;;;;;5030469;28;20457;-75
2023/02/11 02:51:07;;;;;;;27.63;19.63;;;6.90;99.90;;;;;;5030469;28;20198;-74
2023/02/11 02:53:54;;;;;;;27.30;19.40;;;6.80;99.90;;;;;;5030229;28;20468;-75
2023/02/11 02:56:43;;;;;;;28.80;20.80;;;7.10;99.90;;;;;;5030470;28;20991;-75
2023/02/11 02:59:09;;;;;;;33.80;20.40;;;6.90;99.90;;;;;;5006558;28;20417;-75
2023/02/11 03:02:11;;;;;;;27.67;20.20;;;7.00;99.90;;;;;;5030000;28;20491;-75
2023/02/11 03:04:53;;;;;;;27.20;20.03;;;6.90;99.90;;;;;;5030067;28;20167;-74
2023/02/11 03:07:27;;;;;;;29.57;19.70;;;6.80;99.90;;;;;;5030050;28;20410;-74
2023/02/11 03:10:05;;;;;;;28.10;18.27;;;7.10;99.90;;;;;;5030101;28;20432;-74
2023/02/11 03:12:33;;;;;;;32.20;20.07;;;6.90;99.90;;;;;;5071862;22;20496;-78
2023/02/11 03:15:01;;;;;;;28.57;18.33;;;7.00;99.90;;;;;;5056381;28;20416;-77
2023/02/11 03:17:28;;;;;;;29.40;19.43;;;6.80;99.90;;;;;;5056839;28;20915;-78
2023/02/11 03:19:57;;;;;;;28.53;19.20;;;7.10;99.90;;;;;;5057160;28;20468;-78
2023/02/11 03:22:46;;;;;;;28.90;18.37;;;6.90;99.90;;;;;;5041580;28;20435;-78
2023/02/11 03:25:13;;;;;;;28.07;18.80;;;7.00;99.90;;;;;;5037277;28;20405;-78
2023/02/11 03:27:48;;;;;;;28.60;18.77;;;6.80;99.90;;;;;;5037634;28;20504;-79
2023/02/11 03:30:42;;;;;;;23.03;17.27;;;6.90;99.90;;;;;;5037472;28;20429;-77
2023/02/11 03:33:16;;;;;;;23.60;17.87;;;6.80;99.90;;;;;;5036463;28;20483;-78
2023/02/11 03:35:49;;;;;;;28.80;19.23;;;6.90;99.90;;;;;;5038167;28;20516;-78
2023/02/11 03:38:28;;;;;;;29.77;19.40;;;6.80;99.90;;;;;;5042501;28;20424;-78
2023/02/11 03:40:55;;;;;;;30.47;19.00;;;6.90;99.90;;;;;;5057921;28;20531;-78
2023/02/11 03:43:27;;;;;;;26.90;18.67;;;6.70;99.90;;;;;;5058189;28;20431;-77
2023/02/11 03:45:54;;;;;;;33.43;18.90;;;6.80;99.90;;;;;;5057867;28;20423;-79
2023/02/11 03:48:36;;;;;;;26.20;18.80;;;6.90;99.90;;;;;;5057324;28;20762;-77
2023/02/11 03:51:06;;;;;;;29.90;18.27;;;6.80;99.90;;;;;;5058180;28;20412;-77
2023/02/11 03:53:32;;;;;;;26.70;18.40;;;6.70;99.90;;;;;;5056016;28;20527;-78
2023/02/11 03:56:01;;;;;;;31.37;19.07;;;6.80;99.90;;;;;;5040481;28;20415;-78
2023/02/11 03:58:27;;;;;;;27.67;17.17;;;6.70;99.90;;;;;;5056486;28;20419;-79
2023/02/11 04:00:52;;;;;;;27.10;19.27;;;6.90;99.90;;;;;;5056033;28;20408;-78
2023/02/11 04:03:18;;;;;;;28.03;18.70;;;6.80;99.90;;;;;;5057821;28;20177;-77
2023/02/11 04:05:44;;;;;;;28.07;20.13;;;6.70;99.90;;;;;;5058174;28;20692;-77
2023/02/11 04:08:10;;;;;;;28.30;17.97;;;6.70;99.90;;;;;;5058056;28;20193;-78
2023/02/11 04:10:35;;;;;;;29.20;19.10;;;6.70;99.90;;;;;;5056610;28;20244;-79
2023/02/11 04:13:01;;;;;;;29.53;18.03;;;6.70;99.90;;;;;;5056552;28;20248;-79
2023/02/11 04:15:27;;;;;;;29.07;19.20;;;6.80;99.90;;;;;;5058247;28;20174;-78
2023/02/11 04:17:53;;;;;;;34.40;20.57;;;6.80;99.90;;;;;;5056459;28;20423;-77
2023/02/11 04:20:18;;;;;;;29.63;19.37;;;6.80;99.90;;;;;;5057694;28;20230;-79
2023/02/11 04:22:44;;;;;;;31.40;19.00;;;6.80;99.90;;;;;;5057053;28;20205;-79
2023/02/11 04:25:10;;;;;;;29.23;19.27;;;7.00;99.90;;;;;;5056500;28;20189;-77
2023/02/11 04:27:36;;;;;;;29.73;19.30;;;6.90;99.90;;;;;;5056652;28;20188;-79
2023/02/11 04:30:03;;;;;;;26.33;19.50;;;6.90;99.90;;;;;;5056428;28;20495;-78
2023/02/11 04:32:29;;;;;;;31.50;19.70;;;6.70;99.90;;;;;;5056794;28;20570;-77
2023/02/11 04:34:55;;;;;;;29.90;20.47;;;6.70;99.90;;;;;;5057168;28;20470;-79
2023/02/11 04:37:20;;;;;;;29.17;19.17;;;6.60;99.90;;;;;;5057382;28;20170;-79
2023/02/11 04:39:46;;;;;;;30.20;20.10;;;6.70;99.90;;;;;;5037382;28;20266;-78
2023/02/11 04:42:12;;;;;;;32.67;18.93;;;6.70;99.90;;;;;;5037382;28;20217;-78
2023/02/11 04:44:37;;;;;;;35.17;20.40;;;6.70;99.90;;;;;;5038018;28;20241;-78
2023/02/11 04:47:03;;;;;;;27.70;19.10;;;6.70;99.90;;;;;;5037654;28;20224;-78
2023/02/11 04:49:29;;;;;;;30.50;20.00;;;6.90;99.90;;;;;;5037717;28;20221;-78
2023/02/11 04:51:54;;;;;;;29.40;18.80;;;6.70;99.90;;;;;;5037058;28;20666;-78
2023/02/11 04:54:20;;;;;;;28.97;18.33;;;6.70;99.90;;;;;;5036521;28;20182;-77
2023/02/11 04:56:47;;;;;;;40.10;20.57;;;6.90;99.90;;;;;;5038307;28;20190;-78
2023/02/11 04:59:13;;;;;;;30.13;19.00;;;6.80;99.90;;;;;;5037297;28;20413;-78
2023/02/11 05:01:38;;;;;;;31.77;19.50;;;6.70;99.90;;;;;;5039021;28;20801;-76
2023/02/11 05:04:04;;;;;;;30.87;18.57;;;6.80;99.90;;;;;;5039045;28;20416;-79
2023/02/11 05:06:30;;;;;;;30.30;19.13;;;6.80;99.90;;;;;;5038491;28;20428;-79
2023/02/11 05:08:56;;;;;;;32.10;20.63;;;6.70;99.90;;;;;;5038824;28;20764;-79
2023/02/11 05:11:23;;;;;;;33.87;21.50;;;6.80;99.90;;;;;;5039161;28;20229;-78
2023/02/11 05:13:49;;;;;;;27.80;19.20;;;6.70;99.90;;;;;;5037969;28;20253;-78
2023/02/11 05:16:16;;;;;;;30.90;19.73;;;6.50;99.90;;;;;;5037817;28;20417;-78
2023/02/11 05:18:43;;;;;;;27.10;19.73;;;6.60;99.90;;;;;;5071207;28;20414;-79
2023/02/11 05:21:15;;;;;;;30.90;20.30;;;6.60;99.90;;;;;;5070999;28;20444;-75
2023/02/11 05:23:41;;;;;;;29.50;20.63;;;6.70;99.90;;;;;;5037903;28;20421;-78
2023/02/11 05:26:07;;;;;;;31.50;21.33;;;6.70;99.90;;;;;;5037337;28;20432;-78
2023/02/11 05:28:34;;;;;;;30.10;20.30;;;6.60;99.90;;;;;;5016484;28;20436;-76
2023/02/11 05:31:00;;;;;;;30.10;19.70;;;6.60;99.90;;;;;;5065362;28;20502;-77
2023/02/11 05:33:26;;;;;;;28.77;19.43;;;6.90;99.90;;;;;;5035718;28;20468;-77
2023/02/11 05:35:56;;;;;;;31.10;20.30;;;6.60;99.90;;;;;;5071781;28;20417;-78
2023/02/11 05:38:22;;;;;;;31.93;21.00;;;6.60;99.90;;;;;;5047357;28;20416;-79
2023/02/11 05:40:48;;;;;;;34.80;20.93;;;6.60;99.90;;;;;;5059990;28;20448;-78
2023/02/11 05:43:13;;;;;;;26.87;19.50;;;6.70;99.90;;;;;;5060987;28;20182;-77
2023/02/11 05:45:39;;;;;;;33.70;20.93;;;6.70;99.90;;;;;;5061106;28;20254;-78
2023/02/11 05:48:04;;;;;;;33.27;20.73;;;6.70;99.90;;;;;;5060827;28;20285;-78
2023/02/11 05:50:30;;;;;;;35.13;21.23;;;6.80;99.90;;;;;;5060824;28;20287;-79
2023/02/11 05:52:56;;;;;;;31.43;20.63;;;6.80;99.90;;;;;;5060677;28;20209;-77
2023/02/11 05:55:21;;;;;;;33.47;21.83;;;6.70;99.90;;;;;;5060889;28;20264;-79
2023/02/11 05:57:47;;;;;;;33.50;20.70;;;6.50;99.90;;;;;;5060677;28;20260;-78
2023/02/11 06:00:13;;;;;;;30.57;19.87;;;6.60;99.90;;;;;;5061963;28;20224;-79
2023/02/11 06:02:39;;;;;;;32.70;21.90;;;6.70;99.90;;;;;;5060694;28;20194;-79
2023/02/11 06:05:05;;;;;;;34.80;21.20;;;6.60;99.90;;;;;;5061249;28;20430;-77
2023/02/11 06:07:31;;;;;;;32.27;19.87;;;6.80;99.90;;;;;;5043363;28;20185;-79
2023/02/11 06:09:57;;;;;;;30.73;21.40;;;6.90;99.90;;;;;;5060932;28;20428;-78
2023/02/11 06:12:23;;;;;;;31.67;21.00;;;6.90;99.90;;;;;;5042979;28;20217;-78
2023/02/11 06:14:49;;;;;;;36.17;20.90;;;6.90;99.90;;;;;;5059834;28;20476;-78
2023/02/11 06:17:14;;;;;;;30.30;19.20;;;6.70;99.90;;;;;;5061549;28;20186;-77
2023/02/11 06:19:40;;;;;;;30.70;21.40;;;6.70;99.90;;;;;;5060707;28;20188;-79
2023/02/11 06:22:06;;;;;;;32.07;21.80;;;6.70;99.90;;;;;;5060810;28;20268;-77
2023/02/11 06:24:31;;;;;;;29.63;21.40;;;6.60;99.90;;;;;;5059801;28;20174;-78
2023/02/11 06:26:57;;;;;;;37.00;24.03;;;6.60;99.90;;;;;;5060725;28;20177;-76
2023/02/11 06:29:22;;;;;;;31.30;20.77;;;6.50;99.90;;;;;;5058753;28;20181;-79
2023/02/11 06:31:48;;;;;;;33.93;22.00;;;6.60;99.90;;;;;;5060633;28;20274;-78
2023/02/11 06:34:14;;;;;;;31.10;21.90;;;6.60;99.90;;;;;;5059429;28;20580;-79
2023/02/11 06:36:40;;;;;;;29.80;20.90;;;6.90;99.90;;;;;;5059399;28;20212;-78
2023/02/11 06:39:06;;;;;;;34.63;21.77;;;6.70;99.90;;;;;;5045900;28;20242;-78
2023/02/11 06:41:32;;;;;;;38.90;22.83;;;6.40;99.90;;;;;;5039965;28;20447;-78
2023/02/11 06:43:58;;;;;;;31.53;21.20;;;6.50;99.90;;;;;;5040257;28;20429;-79
2023/02/11 06:46:24;;;;;;;32.23;21.30;;;6.60;99.90;;;;;;5040564;28;20417;-77
2023/02/11 06:48:49;;;;;;;36.43;22.20;;;6.70;99.90;;;;;;5040475;28;20243;-78
2023/02/11 06:51:15;;;;;;;34.00;21.80;;;6.60;99.90;;;;;;5040402;28;20768;-79
2023/02/11 06:53:44;;;;;;;34.57;22.30;;;6.50;99.90;;;;;;5040749;28;20214;-78
2023/02/11 06:56:13;;;;;;;33.27;21.67;;;6.60;99.90;;;;;;5039830;28;20235;-77
2023/02/11 06:58:39;;;;;;;33.47;22.37;;;6.80;99.90;;;;;;5055815;28;20928;-78
2023/02/11 07:01:06;;;;;;;38.83;24.20;;;6.60;99.90;;;;;;5040394;28;20451;-78
2023/02/11 07:03:34;;;;;;;38.97;24.70;;;6.70;99.90;;;;;;5072599;28;20436;-78
2023/02/11 07:06:01;;;;;;;37.73;22.23;;;6.60;99.90;;;;;;5072898;28;20436;-78
2023/02/11 07:08:27;;;;;;;37.97;23.87;;;6.70;99.90;;;;;;5072010;28;20441;-78
2023/02/11 07:10:52;;;;;;;36.13;22.43;;;6.70;99.90;;;;;;5040577;28;20421;-78
2023/02/11 07:13:18;;;;;;;37.47;22.93;;;6.80;99.90;;;;;;5038824;28;20213;-79
2023/02/11 07:15:44;;;;;;;42.07;24.17;;;6.70;99.90;;;;;;5039876;28;20179;-78
2023/02/11 07:18:09;;;;;;;46.67;24.63;;;6.70;99.90;;;;;;5039948;28;20182;-77
2023/02/11 07:20:37;;;;;;;40.43;23.27;;;6.60;99.90;;;;;;5043478;28;20180;-78
2023/02/11 07:23:03;;;;;;;45.73;24.60;;;6.70;99.90;;;;;;5039138;28;20229;-78
2023/02/11 07:25:29;;;;;;;47.63;26.43;;;6.70;99.90;;;;;;5041322;28;20489;-77
2023/02/11 07:27:55;;;;;;;39.80;24.77;;;6.70;99.90;;;;;;5045921;28;20433;-77
2023/02/11 07:30:20;;;;;;;41.27;24.30;;;6.70;99.90;;;;;;5041925;28;20181;-78
2023/02/11 07:32:47;;;;;;;42.90;23.87;;;6.80;99.90;;;;;;5018572;28;20226;-77
2023/02/11 07:35:13;;;;;;;44.17;25.13;;;6.70;99.90;;;;;;5068116;28;20179;-78
2023/02/11 07:37:40;;;;;;;48.00;27.17;;;6.80;99.90;;;;;;5038327;28;20523;-78
2023/02/11 07:40:07;;;;;;;45.93;25.47;;;6.90;99.90;;;;;;5054221;28;20478;-77
2023/02/11 07:42:36;;;;;;;48.57;27.97;;;6.70;99.90;;;;;;5056816;28;20475;-77
2023/02/11 07:45:01;;;;;;;40.97;25.13;;;6.60;99.90;;;;;;5054444;28;20840;-78
2023/02/11 07:47:27;;;;;;;48.20;25.57;;;6.60;99.90;;;;;;5055512;28;20443;-78
2023/02/11 07:49:53;;;;;;;44.37;25.33;;;6.80;99.90;;;;;;5055354;28;20531;-78
2023/02/11 07:52:19;;;;;;;49.70;27.33;;;6.90;99.90;;;;;;5038281;28;20217;-78
2023/02/11 07:54:44;;;;;;;52.37;27.07;;;6.80;99.90;;;;;;5054846;28;20208;-77
2023/02/11 07:57:10;;;;;;;47.80;25.97;;;6.70;99.90;;;;;;5056117;28;20555;-78
2023/02/11 07:59:36;;;;;;;48.60;25.57;;;6.80;99.90;;;;;;5056287;28;20186;-77
2023/02/11 08:02:02;;;;;;;43.23;26.13;;;6.80;99.90;;;;;;5055228;28;20444;-79
2023/02/11 08:04:28;;;;;;;43.70;26.53;;;6.90;99.90;;;;;;5038089;28;20201;-78
2023/02/11 08:06:56;;;;;;;45.57;26.00;;;6.80;99.90;;;;;;5056655;28;20512;-79
2023/02/11 08:09:22;;;;;;;43.20;25.87;;;6.70;99.90;;;;;;5038636;28;20185;-78
2023/02/11 08:11:47;;;;;;;51.33;28.53;;;6.60;99.90;;;;;;5056863;28;20466;-77
2023/02/11 08:14:13;;;;;;;49.83;27.73;;;6.80;99.90;;;;;;5057352;28;20793;-78
2023/02/11 08:16:40;;;;;;;48.27;26.30;;;6.60;99.90;;;;;;5057881;28;20177;-78
2023/02/11 08:19:10;;;;;;;51.60;27.57;;;6.70;99.90;;;;;;5057840;28;20419;-78
2023/02/11 08:21:36;;;;;;;52.47;25.60;;;6.70;99.90;;;;;;5058758;28;20436;-79
2023/02/11 08:24:03;;;;;;;43.80;25.17;;;6.80;99.90;;;;;;5055599;28;20424;-78
2023/02/11 08:26:33;;;;;;;52.50;26.90;;;6.80;99.90;;;;;;5057436;28;20444;-78
2023/02/11 08:29:00;;;;;;;53.53;27.13;;;6.70;99.90;;;;;;5039972;28;20424;-78
2023/02/11 08:31:34;;;;;;;57.83;29.73;;;6.60;99.90;;;;;;5039241;28;20460;-79
2023/02/11 08:34:01;;;;;;;44.57;26.80;;;6.60;99.90;;;;;;5056373;28;20478;-79
2023/02/11 08:36:37;;;;;;;50.70;26.20;;;6.60;99.90;;;;;;5058171;28;20420;-79
2023/02/11 08:39:08;;;;;;;50.70;26.50;;;6.70;99.90;;;;;;5045612;28;20424;-78
2023/02/11 08:41:34;;;;;;;50.77;28.30;;;6.70;99.90;;;;;;5068642;28;20445;-78
2023/02/11 08:44:00;;;;;;;43.57;27.10;;;6.80;99.90;;;;;;5038293;28;20425;-78
2023/02/11 08:46:26;;;;;;;48.10;28.50;;;6.70;99.90;;;;;;5070092;28;20776;-79
2023/02/11 08:48:52;;;;;;;57.77;29.63;;;6.70;99.90;;;;;;5020412;28;20474;-79
2023/02/11 08:51:21;;;;;;;57.67;27.87;;;6.90;99.90;;;;;;5037188;28;20206;-79
2023/02/11 08:53:47;;;;;;;56.80;27.77;;;6.70;99.90;;;;;;5035807;28;20460;-79
2023/02/11 08:56:16;;;;;;;51.73;28.60;;;6.80;99.90;;;;;;5037597;28;20425;-78
2023/02/11 08:58:42;;;;;;;60.10;30.33;;;6.70;99.90;;;;;;5037662;28;20185;-78
2023/02/11 09:01:10;;;;;;;48.97;28.90;;;6.80;99.90;;;;;;5036718;28;20812;-79
2023/02/11 09:03:35;;;;;;;52.83;30.23;;;6.70;99.90;;;;;;5038546;28;20559;-78
2023/02/11 09:06:04;;;;;;;54.03;28.17;;;6.80;99.90;;;;;;5040286;28;20429;-78
2023/02/11 09:08:30;;;;;;;53.63;28.97;;;6.90;99.90;;;;;;5072769;28;20252;-78
2023/02/11 09:10:56;;;;;;;56.57;28.93;;;7.00;99.90;;;;;;5039091;28;20432;-79
2023/02/11 09:13:22;;;;;;;55.73;29.27;;;6.80;99.90;;;;;;5032346;28;20249;-79
2023/02/11 09:15:47;;;;;;;50.33;29.53;;;6.70;99.90;;;;;;5030972;28;20529;-79
2023/02/11 09:18:13;;;;;;;54.83;28.63;;;6.90;99.90;;;;;;5032162;28;20682;-78
2023/02/11 09:20:39;;;;;;;53.57;29.80;;;7.00;99.90;;;;;;5032107;28;20178;-78
2023/02/11 09:23:05;;;;;;;53.93;28.67;;;6.90;99.90;;;;;;5030666;28;20927;-79
2023/02/11 09:25:30;;;;;;;55.93;29.23;;;6.90;99.90;;;;;;5032933;28;20190;-77
2023/02/11 09:27:56;;;;;;;55.20;30.23;;;7.10;99.90;;;;;;5034678;28;20174;-78
2023/02/11 09:30:22;;;;;;;53.60;28.70;;;7.20;99.90;;;;;;5032035;28;20275;-78
2023/02/11 09:32:47;;;;;;;60.77;30.30;;;6.80;99.90;;;;;;5031772;28;20218;-78
2023/02/11 09:35:13;;;;;;;58.00;29.43;;;7.00;99.90;;;;;;5030900;28;20666;-78
2023/02/11 09:37:38;;;;;;;52.80;29.20;;;6.90;99.90;;;;;;5033289;28;20713;-78
2023/02/11 09:40:05;;;;;;;58.33;30.10;;;6.80;99.90;;;;;;5051753;28;20208;-79
2023/02/11 09:42:59;;;;;;;62.27;29.60;;;6.90;99.90;;;;;;5051685;28;20205;-78
2023/02/11 09:45:27;;;;;;;59.53;31.80;;;7.00;99.90;;;;;;5050514;28;20428;-78
2023/02/11 09:48:12;;;;;;;53.00;27.90;;;6.90;99.90;;;;;;5051577;28;20550;-78
2023/02/11 09:50:45;;;;;;;59.97;29.77;;;7.20;99.90;;;;;;5051691;28;20529;-78
2023/02/11 09:53:15;;;;;;;61.93;29.80;;;6.90;99.90;;;;;;5050039;28;20478;-78
2023/02/11 09:55:44;;;;;;;62.87;30.40;;;6.90;99.90;;;;;;5050448;28;20908;-78
2023/02/11 09:58:15;;;;;;;50.87;28.20;;;7.00;99.90;;;;;;5051535;28;20412;-79
2023/02/11 10:00:47;;;;;;;57.43;29.50;;;7.20;99.90;;;;;;5051274;28;20415;-78
2023/02/11 10:03:31;;;;;;;61.13;28.87;;;7.00;99.90;;;;;;5049953;28;20424;-79
2023/02/11 10:06:05;;;;;;;57.03;29.30;;;7.00;99.90;;;;;;5051446;28;20424;-78
2023/02/11 10:08:48;;;;;;;53.03;29.60;;;7.30;99.90;;;;;;5049883;28;20412;-79
2023/02/11 10:11:33;;;;;;;59.67;29.07;;;7.10;99.90;;;;;;5051180;28;20793;-78
2023/02/11 10:14:23;;;;;;;53.87;29.70;;;7.20;99.90;;;;;;5049751;28;20467;-78
2023/02/11 10:17:06;;;;;;;51.07;29.00;;;7.10;99.90;;;;;;5051068;28;20448;-78
2023/02/11 10:19:50;;;;;;;53.27;27.77;;;7.10;99.90;;;;;;5033189;28;20420;-79
2023/02/11 10:22:27;;;;;;;52.07;29.23;;;7.20;99.90;;;;;;5050364;28;20448;-78
2023/02/11 10:24:57;;;;;;;64.00;29.20;;;7.30;99.90;;;;;;5051023;28;20470;-78
2023/02/11 10:27:34;;;;;;;55.23;29.10;;;7.20;99.90;;;;;;5033118;28;20998;-78
2023/02/11 10:30:18;;;;;;;59.37;28.93;;;7.20;99.90;;;;;;5032979;28;20432;-78
2023/02/11 10:33:22;;;;;;;61.87;30.70;;;7.30;99.90;;;;;;5049347;28;20471;-78
2023/02/11 10:35:48;;;;;;;51.07;26.67;;;7.20;99.90;;;;;;5036830;28;20527;-79
2023/02/11 10:38:14;;;;;;;53.80;30.87;;;7.20;99.90;;;;;;5044123;28;20916;-79
2023/02/11 10:40:39;;;;;;;54.90;27.93;;;7.30;99.90;;;;;;5029563;28;20273;-79
2023/02/11 10:43:11;;;;;;;57.83;28.37;;;7.50;99.90;;;;;;5030112;28;20494;-79
2023/02/11 10:45:47;;;;;;;51.63;29.53;;;7.40;99.90;;;;;;5063035;28;20189;-78
2023/02/11 10:48:42;;;;;;;56.50;28.03;;;7.30;99.90;;;;;;5030663;28;20913;-78
2023/02/11 10:51:19;;;;;;;54.67;30.20;;;7.30;99.90;;;;;;5062341;28;20437;-78
2023/02/11 10:53:47;;;;;;;56.97;29.40;;;7.30;99.90;;;;;;5029010;28;20472;-78
2023/02/11 10:56:26;;;;;;;59.10;28.83;;;7.40;99.90;;;;;;5030754;28;20512;-79
2023/02/11 10:59:19;;;;;;;53.83;28.20;;;7.40;99.90;;;;;;5062194;28;20431;-78
2023/02/11 11:01:55;;;;;;;56.20;28.30;;;7.40;99.90;;;;;;5030208;28;20459;-79
2023/02/11 11:04:30;;;;;;;58.53;30.10;;;7.40;99.90;;;;;;5030254;28;20416;-78
2023/02/11 11:07:22;;;;;;;57.23;30.30;;;7.40;99.90;;;;;;5030323;28;20424;-78
2023/02/11 11:09:58;;;;;;;54.67;31.00;;;7.50;99.90;;;;;;5028878;28;20425;-79
2023/02/11 11:12:47;;;;;;;65.33;30.30;;;7.40;99.90;;;;;;5028778;28;20468;-78
2023/02/11 11:15:26;;;;;;;57.37;30.37;;;7.50;99.90;;;;;;5045479;28;20428;-78
2023/02/11 11:18:15;;;;;;;55.23;29.10;;;7.60;99.90;;;;;;5028762;28;20441;-79
2023/02/11 11:21:04;;;;;;;56.60;32.00;;;7.50;99.90;;;;;;5028769;28;20507;-79
2023/02/11 11:23:30;;;;;;;91.07;32.33;;;7.50;99.90;;;;;;5028649;28;20905;-79
2023/02/11 11:26:13;;;;;;;57.33;29.60;;;7.40;99.90;;;;;;5032407;28;20436;-79
2023/02/11 11:28:56;;;;;;;53.00;30.43;;;7.50;99.90;;;;;;5030004;28;20508;-78
2023/02/11 11:31:32;;;;;;;57.73;31.20;;;7.60;99.90;;;;;;5061848;28;20445;-78
2023/02/11 11:34:02;;;;;;;54.30;31.13;;;7.50;99.90;;;;;;5061526;28;20464;-79
2023/02/11 11:36:37;;;;;;;59.07;31.37;;;7.60;99.90;;;;;;5029969;28;20418;-79
2023/02/11 11:39:20;;;;;;;57.27;31.97;;;7.50;99.90;;;;;;5042586;28;20459;-78
2023/02/11 11:42:10;;;;;;;56.00;31.73;;;7.40;99.90;;;;;;5048351;28;20489;-79
2023/02/11 11:44:38;;;;;;;57.80;31.70;;;7.70;99.90;;;;;;5035264;28;20420;-79
2023/02/11 11:47:10;;;;;;;59.10;32.20;;;7.50;99.90;;;;;;5049317;28;20447;-78
2023/02/11 11:49:46;;;;;;;62.03;31.13;;;7.60;99.90;;;;;;5047936;28;20781;-79
2023/02/11 11:52:19;;;;;;;62.33;32.60;;;7.50;99.90;;;;;;5048050;28;20436;-79
2023/02/11 11:54:54;;;;;;;64.83;32.70;;;7.60;99.90;;;;;;5049127;28;20972;-79
2023/02/11 11:57:29;;;;;;;53.93;31.00;;;7.50;99.90;;;;;;5049044;28;20518;-79
2023/02/11 11:59:56;;;;;;;60.23;33.17;;;7.60;99.90;;;;;;5031226;28;20792;-78
2023/02/11 12:02:40;;;;;;;54.10;30.57;;;7.70;99.90;;;;;;5049292;28;20444;-78
2023/02/11 12:05:18;;;;;;;62.07;33.37;;;7.50;99.90;;;;;;5049088;28;20424;-78
2023/02/11 12:08:02;;;;;;;58.30;30.90;;;7.70;99.90;;;;;;5048990;28;20990;-78
2023/02/11 12:10:52;;;;;;;62.00;33.40;;;7.70;99.90;;;;;;5048927;28;20436;-78
2023/02/11 12:13:36;;;;;;;55.43;31.53;;;7.70;99.90;;;;;;5048954;28;20472;-78
2023/02/11 12:16:16;;;;;;;68.13;34.70;;;7.50;99.90;;;;;;5049186;28;20491;-78
2023/02/11 12:18:45;;;;;;;67.33;34.30;;;7.70;99.90;;;;;;5047721;28;20419;-78
2023/02/11 12:21:25;;;;;;;63.57;34.87;;;7.70;99.90;;;;;;5049653;28;20432;-78
2023/02/11 12:24:22;;;;;;;60.93;33.10;;;7.70;99.90;;;;;;5046534;28;20451;-78
2023/02/11 12:27:04;;;;;;;55.53;33.67;;;7.70;99.90;;;;;;5047729;28;20420;-78
2023/02/11 12:29:59;;;;;;;60.97;34.33;;;7.60;99.90;;;;;;5048922;28;20443;-78
2023/02/11 12:32:46;;;;;;;64.77;35.80;;;7.70;99.90;;;;;;5048686;28;20542;-78
2023/02/11 12:35:24;;;;;;;69.07;34.07;;;7.80;99.90;;;;;;5047328;28;20932;-78
2023/02/11 12:38:10;;;;;;;68.90;35.50;;;7.70;99.90;;;;;;5043644;28;20421;-79
2023/02/11 12:40:50;;;;;;;64.80;33.67;;;7.80;99.90;;;;;;5027501;28;20793;-78
2023/02/11 12:43:37;;;;;;;58.57;34.40;;;7.70;99.90;;;;;;5028640;28;20472;-78
2023/02/11 12:46:44;;;;;;;60.00;34.13;;;7.70;99.90;;;;;;5027581;28;20421;-78
2023/02/11 12:49:51;;;;;;;60.90;33.43;;;7.80;99.90;;;;;;5024664;28;20523;-78
2023/02/11 12:52:47;;;;;;;70.57;36.03;;;7.80;99.90;;;;;;5026041;28;20473;-78
2023/02/11 12:55:25;;;;;;;62.37;33.00;;;7.80;99.90;;;;;;5009535;28;20933;-78
2023/02/11 12:57:55;;;;;;;64.23;35.70;;;7.90;99.90;;;;;;5021805;28;20479;-78
2023/02/11 13:00:50;;;;;;;65.77;36.40;;;7.80;99.90;;;;;;5028611;28;20414;-79
2023/02/11 13:03:22;;;;;;;61.93;33.93;;;7.90;99.90;;;;;;5028033;28;20436;-78